sensor_id;sensor_type;location;lat;lon;timestamp;temperature;humidity
16635;DHT22;8431;52.458;9.998;2023-04-25T00:01:18;7.40;99.90
16635;DHT22;8431;52.458;9.998;2023-04-25T00:03:45;7.40;99.90
16635;DHT22;8431;52.458;9.998;2023-04-25T00:06:14;7.40;99.90
16635;DHT22;8431;52.458;9.998;2023-04-25T00:08:41;7.40;99.90
16635;DHT22;8431;52.458;9.998;2023-04-25T00:11:08;7.40;99.90
16635;DHT22;8431;52.458;9.998;2023-04-25T00:13:35;7.40;99.90
16635;DHT22;8431;52.458;9.998;2023-04-25T00:16:02;7.40;99.90
16635;DHT22;8431;52.458;9.998;2023-04-25T00:18:29;7.40;99.90
16635;DHT22;8431;52.458;9.998;2023-04-25T00:20:58;7.30;99.90
16635;DHT22;8431;52.458;9.998;2023-04-25T00:23:27;7.30;99.90
16635;DHT22;8431;52.458;9.998;2023-04-25T00:25:54;7.30;99.90
16635;DHT22;8431;52.458;9.998;2023-04-25T00:28:21;7.30;99.90
16635;DHT22;8431;52.458;9.998;2023-04-25T00:30:48;7.20;99.90
16635;DHT22;8431;52.458;9.998;2023-04-25T00:33:15;7.10;99.90
16635;DHT22;8431;52.458;9.998;2023-04-25T00:35:42;7.00;99.90
16635;DHT22;8431;52.458;9.998;2023-04-25T00:38:09;7.00;99.90
16635;DHT22;8431;52.458;9.998;2023-04-25T00:40:38;7.00;99.90
16635;DHT22;8431;52.458;9.998;2023-04-25T00:43:05;7.00;99.90
16635;DHT22;8431;52.458;9.998;2023-04-25T00:45:35;7.00;99.90
16635;DHT22;8431;52.458;9.998;2023-04-25T00:48:04;7.10;99.90
16635;DHT22;8431;52.458;9.998;2023-04-25T00:50:33;7.10;99.90
16635;DHT22;8431;52.458;9.998;2023-04-25T00:53:00;7.10;99.90
16635;DHT22;8431;52.458;9.998;2023-04-25T00:55:29;7.10;99.90
16635;DHT22;8431;52.458;9.998;2023-04-25T00:57:58;7.20;99.90
16635;DHT22;8431;52.458;9.998;2023-04-25T01:00:26;7.20;99.90
16635;DHT22;8431;52.458;9.998;2023-04-25T01:02:53;7.20;99.90
16635;DHT22;8431;52.458;9.998;2023-04-25T01:05:23;7.20;99.90
16635;DHT22;8431;52.458;9.998;2023-04-25T01:07:50;7.20;99.90
16635;DHT22;8431;52.458;9.998;2023-04-25T01:10:18;7.20;99.90
16635;DHT22;8431;52.458;9.998;2023-04-25T01:12:45;7.20;99.90
16635;DHT22;8431;52.458;9.998;2023-04-25T01:15:13;7.20;99.90
16635;DHT22;8431;52.458;9.998;2023-04-25T01:17:40;7.20;99.90
16635;DHT22;8431;52.458;9.998;2023-04-25T01:20:11;7.20;99.90
16635;DHT22;8431;52.458;9.998;2023-04-25T01:22:40;7.20;99.90
16635;DHT22;8431;52.458;9.998;2023-04-25T01:25:07;7.20;99.90
16635;DHT22;8431;52.458;9.998;2023-04-25T01:27:36;7.20;99.90
16635;DHT22;8431;52.458;9.998;2023-04-25T01:30:04;7.20;99.90
16635;DHT22;8431;52.458;9.998;2023-04-25T01:32:33;7.20;99.90
16635;DHT22;8431;52.458;9.998;2023-04-25T01:35:04;7.20;99.90
16635;DHT22;8431;52.458;9.998;2023-04-25T01:37:35;7.20;99.90
16635;DHT22;8431;52.458;9.998;2023-04-25T01:40:04;7.20;99.90
16635;DHT22;8431;52.458;9.998;2023-04-25T01:42:32;7.20;99.90
16635;DHT22;8431;52.458;9.998;2023-04-25T01:44:59;7.20;99.90
16635;DHT22;8431;52.458;9.998;2023-04-25T01:47:26;7.20;99.90
16635;DHT22;8431;52.458;9.998;2023-04-25T01:49:53;7.20;99.90
16635;DHT22;8431;52.458;9.998;2023-04-25T01:52:20;7.20;99.90
16635;DHT22;8431;52.458;9.998;2023-04-25T01:54:48;7.20;99.90
16635;DHT22;8431;52.458;9.998;2023-04-25T01:57:16;7.20;99.90
16635;DHT22;8431;52.458;9.998;2023-04-25T01:59:44;7.20;99.90
16635;DHT22;8431;52.458;9.998;2023-04-25T02:02:11;7.20;99.90
16635;DHT22;8431;52.458;9.998;2023-04-25T02:04:38;7.20;99.90
16635;DHT22;8431;52.458;9.998;2023-04-25T02:07:08;7.20;99.90
16635;DHT22;8431;52.458;9.998;2023-04-25T02:09:35;7.10;99.90
16635;DHT22;8431;52.458;9.998;2023-04-25T02:12:02;7.10;99.90
16635;DHT22;8431;52.458;9.998;2023-04-25T02:14:30;7.00;99.90
16635;DHT22;8431;52.458;9.998;2023-04-25T02:16:57;7.00;99.90
16635;DHT22;8431;52.458;9.998;2023-04-25T02:19:24;7.00;99.90
16635;DHT22;8431;52.458;9.998;2023-04-25T02:21:51;7.00;99.90
16635;DHT22;8431;52.458;9.998;2023-04-25T02:24:18;6.90;99.90
16635;DHT22;8431;52.458;9.998;2023-04-25T02:26:45;6.80;99.90
16635;DHT22;8431;52.458;9.998;2023-04-25T02:29:12;6.80;99.90
16635;DHT22;8431;52.458;9.998;2023-04-25T02:31:42;6.70;99.90
16635;DHT22;8431;52.458;9.998;2023-04-25T02:34:09;6.60;99.90
16635;DHT22;8431;52.458;9.998;2023-04-25T02:36:36;6.60;99.90
16635;DHT22;8431;52.458;9.998;2023-04-25T02:39:03;6.50;99.90
16635;DHT22;8431;52.458;9.998;2023-04-25T02:41:30;6.50;99.90
16635;DHT22;8431;52.458;9.998;2023-04-25T02:43:57;6.40;99.90
16635;DHT22;8431;52.458;9.998;2023-04-25T02:46:24;6.40;99.90
16635;DHT22;8431;52.458;9.998;2023-04-25T02:48:52;6.40;99.90
16635;DHT22;8431;52.458;9.998;2023-04-25T02:51:19;6.30;99.90
16635;DHT22;8431;52.458;9.998;2023-04-25T02:53:46;6.30;99.90
16635;DHT22;8431;52.458;9.998;2023-04-25T02:56:13;6.30;99.90
16635;DHT22;8431;52.458;9.998;2023-04-25T02:58:40;6.30;99.90
16635;DHT22;8431;52.458;9.998;2023-04-25T03:01:07;6.30;99.90
16635;DHT22;8431;52.458;9.998;2023-04-25T03:03:34;6.30;99.90
16635;DHT22;8431;52.458;9.998;2023-04-25T03:06:03;6.30;99.90
16635;DHT22;8431;52.458;9.998;2023-04-25T03:08:30;6.20;99.90
16635;DHT22;8431;52.458;9.998;2023-04-25T03:10:58;6.20;99.90
16635;DHT22;8431;52.458;9.998;2023-04-25T03:13:25;6.10;99.90
16635;DHT22;8431;52.458;9.998;2023-04-25T03:15:53;6.10;99.90
16635;DHT22;8431;52.458;9.998;2023-04-25T03:18:19;6.10;99.90
16635;DHT22;8431;52.458;9.998;2023-04-25T03:20:46;6.10;99.90
16635;DHT22;8431;52.458;9.998;2023-04-25T03:23:15;6.10;99.90
16635;DHT22;8431;52.458;9.998;2023-04-25T03:25:42;6.10;99.90
16635;DHT22;8431;52.458;9.998;2023-04-25T03:28:09;6.10;99.90
16635;DHT22;8431;52.458;9.998;2023-04-25T03:30:36;6.10;99.90
16635;DHT22;8431;52.458;9.998;2023-04-25T03:33:03;6.10;99.90
16635;DHT22;8431;52.458;9.998;2023-04-25T03:35:30;6.10;99.90
16635;DHT22;8431;52.458;9.998;2023-04-25T03:37:57;6.00;99.90
16635;DHT22;8431;52.458;9.998;2023-04-25T03:40:25;6.00;99.90
16635;DHT22;8431;52.458;9.998;2023-04-25T03:42:52;6.00;99.90
16635;DHT22;8431;52.458;9.998;2023-04-25T03:45:19;5.90;99.90
16635;DHT22;8431;52.458;9.998;2023-04-25T03:47:46;5.90;99.90
16635;DHT22;8431;52.458;9.998;2023-04-25T03:50:13;5.90;99.90
16635;DHT22;8431;52.458;9.998;2023-04-25T03:52:40;5.90;99.90
16635;DHT22;8431;52.458;9.998;2023-04-25T03:55:08;5.80;99.90
16635;DHT22;8431;52.458;9.998;2023-04-25T03:57:38;5.80;99.90
16635;DHT22;8431;52.458;9.998;2023-04-25T04:00:07;5.80;99.90
16635;DHT22;8431;52.458;9.998;2023-04-25T04:02:34;5.80;99.90
16635;DHT22;8431;52.458;9.998;2023-04-25T04:05:03;5.80;99.90
16635;DHT22;8431;52.458;9.998;2023-04-25T04:07:31;5.80;99.90
16635;DHT22;8431;52.458;9.998;2023-04-25T04:09:59;5.80;99.90
16635;DHT22;8431;52.458;9.998;2023-04-25T04:12:26;5.80;99.90
16635;DHT22;8431;52.458;9.998;2023-04-25T04:14:54;5.90;99.90
16635;DHT22;8431;52.458;9.998;2023-04-25T04:17:21;5.90;99.90
16635;DHT22;8431;52.458;9.998;2023-04-25T04:19:48;5.90;99.90
16635;DHT22;8431;52.458;9.998;2023-04-25T04:22:15;5.90;99.90
16635;DHT22;8431;52.458;9.998;2023-04-25T04:24:42;5.90;99.90
16635;DHT22;8431;52.458;9.998;2023-04-25T04:27:09;5.90;99.90
16635;DHT22;8431;52.458;9.998;2023-04-25T04:29:38;5.90;99.90
16635;DHT22;8431;52.458;9.998;2023-04-25T04:32:06;5.90;99.90
16635;DHT22;8431;52.458;9.998;2023-04-25T04:34:34;5.90;99.90
16635;DHT22;8431;52.458;9.998;2023-04-25T04:37:01;5.90;99.90
16635;DHT22;8431;52.458;9.998;2023-04-25T04:39:28;5.80;99.90
16635;DHT22;8431;52.458;9.998;2023-04-25T04:41:55;5.90;99.90
16635;DHT22;8431;52.458;9.998;2023-04-25T04:44:22;5.90;99.90
16635;DHT22;8431;52.458;9.998;2023-04-25T04:46:49;5.90;99.90
16635;DHT22;8431;52.458;9.998;2023-04-25T04:49:18;6.00;99.90
16635;DHT22;8431;52.458;9.998;2023-04-25T04:51:44;6.00;99.90
16635;DHT22;8431;52.458;9.998;2023-04-25T04:54:12;6.00;99.90
16635;DHT22;8431;52.458;9.998;2023-04-25T04:56:39;6.10;99.90
16635;DHT22;8431;52.458;9.998;2023-04-25T04:59:07;6.10;99.90
16635;DHT22;8431;52.458;9.998;2023-04-25T05:01:34;6.10;99.90
16635;DHT22;8431;52.458;9.998;2023-04-25T05:04:02;6.10;99.90
16635;DHT22;8431;52.458;9.998;2023-04-25T05:06:30;6.20;99.90
16635;DHT22;8431;52.458;9.998;2023-04-25T05:08:58;6.20;99.90
16635;DHT22;8431;52.458;9.998;2023-04-25T05:11:28;6.20;99.90
16635;DHT22;8431;52.458;9.998;2023-04-25T05:13:55;6.30;99.90
16635;DHT22;8431;52.458;9.998;2023-04-25T05:16:22;6.20;99.90
16635;DHT22;8431;52.458;9.998;2023-04-25T05:18:49;6.30;99.90
16635;DHT22;8431;52.458;9.998;2023-04-25T05:21:16;6.30;99.90
16635;DHT22;8431;52.458;9.998;2023-04-25T05:23:45;6.40;99.90
16635;DHT22;8431;52.458;9.998;2023-04-25T05:26:12;6.50;99.90
16635;DHT22;8431;52.458;9.998;2023-04-25T05:28:40;6.60;99.90
16635;DHT22;8431;52.458;9.998;2023-04-25T05:31:09;6.60;99.90
16635;DHT22;8431;52.458;9.998;2023-04-25T05:33:36;6.60;99.90
16635;DHT22;8431;52.458;9.998;2023-04-25T05:36:03;6.70;99.90
16635;DHT22;8431;52.458;9.998;2023-04-25T05:38:30;6.70;99.90
16635;DHT22;8431;52.458;9.998;2023-04-25T05:40:58;6.70;99.90
16635;DHT22;8431;52.458;9.998;2023-04-25T05:43:25;6.70;99.90
16635;DHT22;8431;52.458;9.998;2023-04-25T05:45:53;6.70;99.90
16635;DHT22;8431;52.458;9.998;2023-04-25T05:48:20;6.60;99.90
16635;DHT22;8431;52.458;9.998;2023-04-25T05:50:47;6.60;99.90
16635;DHT22;8431;52.458;9.998;2023-04-25T05:53:14;6.80;99.90
16635;DHT22;8431;52.458;9.998;2023-04-25T05:55:41;7.00;99.90
16635;DHT22;8431;52.458;9.998;2023-04-25T05:58:09;7.20;99.90
16635;DHT22;8431;52.458;9.998;2023-04-25T06:00:36;7.30;99.90
16635;DHT22;8431;52.458;9.998;2023-04-25T06:03:03;7.30;99.90
16635;DHT22;8431;52.458;9.998;2023-04-25T06:05:32;7.20;99.90
16635;DHT22;8431;52.458;9.998;2023-04-25T06:07:59;7.30;99.90
16635;DHT22;8431;52.458;9.998;2023-04-25T06:10:26;7.40;99.90
16635;DHT22;8431;52.458;9.998;2023-04-25T06:12:53;7.50;99.90
16635;DHT22;8431;52.458;9.998;2023-04-25T06:15:22;7.60;99.90
16635;DHT22;8431;52.458;9.998;2023-04-25T06:17:49;7.60;99.90
16635;DHT22;8431;52.458;9.998;2023-04-25T06:20:16;7.50;99.90
16635;DHT22;8431;52.458;9.998;2023-04-25T06:22:43;7.50;99.90
16635;DHT22;8431;52.458;9.998;2023-04-25T06:25:10;7.50;99.90
16635;DHT22;8431;52.458;9.998;2023-04-25T06:27:37;7.50;99.90
16635;DHT22;8431;52.458;9.998;2023-04-25T06:30:04;7.50;99.90
16635;DHT22;8431;52.458;9.998;2023-04-25T06:32:33;7.50;99.90
16635;DHT22;8431;52.458;9.998;2023-04-25T06:35:00;7.50;99.90
16635;DHT22;8431;52.458;9.998;2023-04-25T06:37:30;7.40;99.90
16635;DHT22;8431;52.458;9.998;2023-04-25T06:39:56;7.50;99.90
16635;DHT22;8431;52.458;9.998;2023-04-25T06:42:23;7.40;99.90
16635;DHT22;8431;52.458;9.998;2023-04-25T06:44:50;7.40;99.90
16635;DHT22;8431;52.458;9.998;2023-04-25T06:47:17;7.40;99.90
16635;DHT22;8431;52.458;9.998;2023-04-25T06:49:46;7.40;99.90
16635;DHT22;8431;52.458;9.998;2023-04-25T06:52:13;7.50;99.90
16635;DHT22;8431;52.458;9.998;2023-04-25T06:54:40;7.60;99.90
16635;DHT22;8431;52.458;9.998;2023-04-25T06:57:07;7.60;99.90
16635;DHT22;8431;52.458;9.998;2023-04-25T06:59:34;7.70;99.90
16635;DHT22;8431;52.458;9.998;2023-04-25T07:02:01;7.80;99.90
16635;DHT22;8431;52.458;9.998;2023-04-25T07:04:29;7.80;99.90
16635;DHT22;8431;52.458;9.998;2023-04-25T07:06:58;8.00;99.90
16635;DHT22;8431;52.458;9.998;2023-04-25T07:09:26;8.10;99.90
16635;DHT22;8431;52.458;9.998;2023-04-25T07:11:53;8.10;99.90
16635;DHT22;8431;52.458;9.998;2023-04-25T07:14:20;8.20;99.90
16635;DHT22;8431;52.458;9.998;2023-04-25T07:16:47;8.10;99.90
16635;DHT22;8431;52.458;9.998;2023-04-25T07:19:15;8.10;99.90
16635;DHT22;8431;52.458;9.998;2023-04-25T07:21:42;8.00;99.90
16635;DHT22;8431;52.458;9.998;2023-04-25T07:24:10;7.90;99.90
16635;DHT22;8431;52.458;9.998;2023-04-25T07:26:37;7.90;99.90
16635;DHT22;8431;52.458;9.998;2023-04-25T07:29:04;8.00;99.90
16635;DHT22;8431;52.458;9.998;2023-04-25T07:31:31;8.30;99.90
16635;DHT22;8431;52.458;9.998;2023-04-25T07:33:58;8.40;99.90
16635;DHT22;8431;52.458;9.998;2023-04-25T07:36:25;8.40;99.90
16635;DHT22;8431;52.458;9.998;2023-04-25T07:38:52;8.30;99.90
16635;DHT22;8431;52.458;9.998;2023-04-25T07:41:21;8.00;99.90
16635;DHT22;8431;52.458;9.998;2023-04-25T07:43:48;7.80;99.90
16635;DHT22;8431;52.458;9.998;2023-04-25T07:46:15;7.90;99.90
16635;DHT22;8431;52.458;9.998;2023-04-25T07:48:42;8.00;99.90
16635;DHT22;8431;52.458;9.998;2023-04-25T07:51:09;8.30;99.90
16635;DHT22;8431;52.458;9.998;2023-04-25T07:53:36;8.50;99.90
16635;DHT22;8431;52.458;9.998;2023-04-25T07:56:04;8.70;99.90
16635;DHT22;8431;52.458;9.998;2023-04-25T07:58:32;8.60;99.90
16635;DHT22;8431;52.458;9.998;2023-04-25T08:00:59;8.50;99.90
16635;DHT22;8431;52.458;9.998;2023-04-25T08:03:26;8.40;99.90
16635;DHT22;8431;52.458;9.998;2023-04-25T08:05:53;8.40;99.90
16635;DHT22;8431;52.458;9.998;2023-04-25T08:08:21;8.40;99.90
16635;DHT22;8431;52.458;9.998;2023-04-25T08:10:48;8.30;99.90
16635;DHT22;8431;52.458;9.998;2023-04-25T08:13:15;8.20;99.90
16635;DHT22;8431;52.458;9.998;2023-04-25T08:15:43;8.10;99.90
16635;DHT22;8431;52.458;9.998;2023-04-25T08:18:10;8.00;99.90
16635;DHT22;8431;52.458;9.998;2023-04-25T08:20:37;8.10;99.90
16635;DHT22;8431;52.458;9.998;2023-04-25T08:23:04;8.00;99.90
16635;DHT22;8431;52.458;9.998;2023-04-25T08:25:31;8.20;99.90
16635;DHT22;8431;52.458;9.998;2023-04-25T08:27:58;8.30;99.90
16635;DHT22;8431;52.458;9.998;2023-04-25T08:30:28;8.30;99.90
16635;DHT22;8431;52.458;9.998;2023-04-25T08:32:56;8.60;99.90
16635;DHT22;8431;52.458;9.998;2023-04-25T08:35:23;8.80;99.90
16635;DHT22;8431;52.458;9.998;2023-04-25T08:37:50;9.00;99.90
16635;DHT22;8431;52.458;9.998;2023-04-25T08:40:17;9.10;99.90
16635;DHT22;8431;52.458;9.998;2023-04-25T08:42:53;9.10;99.90
16635;DHT22;8431;52.458;9.998;2023-04-25T08:45:21;8.70;99.90
16635;DHT22;8431;52.458;9.998;2023-04-25T08:47:48;8.60;99.90
16635;DHT22;8431;52.458;9.998;2023-04-25T08:50:18;8.90;99.90
16635;DHT22;8431;52.458;9.998;2023-04-25T08:52:50;9.20;99.90
16635;DHT22;8431;52.458;9.998;2023-04-25T08:55:18;9.20;99.90
16635;DHT22;8431;52.458;9.998;2023-04-25T08:57:46;9.00;99.90
16635;DHT22;8431;52.458;9.998;2023-04-25T09:00:14;8.70;99.90
16635;DHT22;8431;52.458;9.998;2023-04-25T09:02:42;8.20;99.90
16635;DHT22;8431;52.458;9.998;2023-04-25T09:05:10;8.20;99.90
16635;DHT22;8431;52.458;9.998;2023-04-25T09:07:40;8.40;99.90
16635;DHT22;8431;52.458;9.998;2023-04-25T09:10:08;8.70;99.90
16635;DHT22;8431;52.458;9.998;2023-04-25T09:12:35;8.70;99.90
16635;DHT22;8431;52.458;9.998;2023-04-25T09:15:05;8.40;99.90
16635;DHT22;8431;52.458;9.998;2023-04-25T09:17:32;8.30;99.90
16635;DHT22;8431;52.458;9.998;2023-04-25T09:20:10;8.30;99.90
16635;DHT22;8431;52.458;9.998;2023-04-25T09:22:37;8.20;99.90
16635;DHT22;8431;52.458;9.998;2023-04-25T09:25:10;8.20;99.90
16635;DHT22;8431;52.458;9.998;2023-04-25T09:27:49;8.30;99.90
16635;DHT22;8431;52.458;9.998;2023-04-25T09:30:17;8.50;99.90
16635;DHT22;8431;52.458;9.998;2023-04-25T09:32:44;8.80;99.90
16635;DHT22;8431;52.458;9.998;2023-04-25T09:35:23;8.90;99.90
16635;DHT22;8431;52.458;9.998;2023-04-25T09:37:51;8.80;99.90
16635;DHT22;8431;52.458;9.998;2023-04-25T09:40:19;8.70;99.90
16635;DHT22;8431;52.458;9.998;2023-04-25T09:42:46;8.90;99.90
16635;DHT22;8431;52.458;9.998;2023-04-25T09:45:13;9.20;99.90
16635;DHT22;8431;52.458;9.998;2023-04-25T09:47:41;9.40;99.90
16635;DHT22;8431;52.458;9.998;2023-04-25T09:50:14;9.60;99.90
16635;DHT22;8431;52.458;9.998;2023-04-25T09:52:41;10.10;99.90
16635;DHT22;8431;52.458;9.998;2023-04-25T09:55:08;10.50;99.90
16635;DHT22;8431;52.458;9.998;2023-04-25T09:57:37;10.70;99.90
16635;DHT22;8431;52.458;9.998;2023-04-25T10:00:06;10.80;99.90
16635;DHT22;8431;52.458;9.998;2023-04-25T10:02:38;10.20;99.90
16635;DHT22;8431;52.458;9.998;2023-04-25T10:05:09;9.70;99.90
16635;DHT22;8431;52.458;9.998;2023-04-25T10:07:37;9.50;99.90
16635;DHT22;8431;52.458;9.998;2023-04-25T10:10:05;9.20;99.90
16635;DHT22;8431;52.458;9.998;2023-04-25T10:12:33;9.00;99.90
16635;DHT22;8431;52.458;9.998;2023-04-25T10:15:03;8.90;99.90
16635;DHT22;8431;52.458;9.998;2023-04-25T10:17:31;8.70;99.90
16635;DHT22;8431;52.458;9.998;2023-04-25T10:20:01;8.60;99.90
16635;DHT22;8431;52.458;9.998;2023-04-25T10:25:25;9.00;99.90
16635;DHT22;8431;52.458;9.998;2023-04-25T10:27:53;9.40;99.90
16635;DHT22;8431;52.458;9.998;2023-04-25T10:30:21;9.70;99.90
16635;DHT22;8431;52.458;9.998;2023-04-25T10:32:48;9.30;99.90
16635;DHT22;8431;52.458;9.998;2023-04-25T10:35:18;8.90;99.90
16635;DHT22;8431;52.458;9.998;2023-04-25T10:38:03;8.60;99.90
16635;DHT22;8431;52.458;9.998;2023-04-25T10:40:30;8.40;99.90
16635;DHT22;8431;52.458;9.998;2023-04-25T10:43:35;8.20;99.90
16635;DHT22;8431;52.458;9.998;2023-04-25T10:46:13;8.20;99.90
16635;DHT22;8431;52.458;9.998;2023-04-25T10:48:46;8.30;99.90
16635;DHT22;8431;52.458;9.998;2023-04-25T10:51:20;8.30;99.90
16635;DHT22;8431;52.458;9.998;2023-04-25T10:53:57;8.60;99.90
16635;DHT22;8431;52.458;9.998;2023-04-25T10:56:26;8.90;99.90
16635;DHT22;8431;52.458;9.998;2023-04-25T10:59:06;9.00;99.90
16635;DHT22;8431;52.458;9.998;2023-04-25T11:01:38;9.00;99.90
16635;DHT22;8431;52.458;9.998;2023-04-25T11:04:19;9.00;99.90
16635;DHT22;8431;52.458;9.998;2023-04-25T11:07:02;8.90;99.90
16635;DHT22;8431;52.458;9.998;2023-04-25T11:09:30;9.10;99.90
16635;DHT22;8431;52.458;9.998;2023-04-25T11:14:42;9.60;99.90
16635;DHT22;8431;52.458;9.998;2023-04-25T11:17:10;9.80;99.90
16635;DHT22;8431;52.458;9.998;2023-04-25T11:19:37;10.00;99.90
16635;DHT22;8431;52.458;9.998;2023-04-25T11:22:18;10.20;99.90
16635;DHT22;8431;52.458;9.998;2023-04-25T11:25:20;10.00;99.90
16635;DHT22;8431;52.458;9.998;2023-04-25T11:28:20;9.70;99.90
16635;DHT22;8431;52.458;9.998;2023-04-25T11:34:43;10.10;99.90
16635;DHT22;8431;52.458;9.998;2023-04-25T11:37:11;10.60;99.90
16635;DHT22;8431;52.458;9.998;2023-04-25T11:39:43;10.90;99.90
16635;DHT22;8431;52.458;9.998;2023-04-25T11:42:10;10.80;99.90
16635;DHT22;8431;52.458;9.998;2023-04-25T11:44:38;10.40;99.90
16635;DHT22;8431;52.458;9.998;2023-04-25T11:47:06;9.80;99.90
16635;DHT22;8431;52.458;9.998;2023-04-25T11:49:33;9.40;99.90
16635;DHT22;8431;52.458;9.998;2023-04-25T11:52:05;9.10;99.90
16635;DHT22;8431;52.458;9.998;2023-04-25T11:54:35;9.00;99.90
16635;DHT22;8431;52.458;9.998;2023-04-25T11:57:02;8.80;99.90
16635;DHT22;8431;52.458;9.998;2023-04-25T11:59:30;8.60;99.90
16635;DHT22;8431;52.458;9.998;2023-04-25T12:02:23;8.50;99.90
16635;DHT22;8431;52.458;9.998;2023-04-25T13:03:40;10.10;99.90
16635;DHT22;8431;52.458;9.998;2023-04-25T13:06:08;10.10;99.90
16635;DHT22;8431;52.458;9.998;2023-04-25T13:08:35;10.10;99.90
16635;DHT22;8431;52.458;9.998;2023-04-25T13:11:02;10.30;99.90
16635;DHT22;8431;52.458;9.998;2023-04-25T13:13:30;10.40;99.90
16635;DHT22;8431;52.458;9.998;2023-04-25T13:15:58;10.20;99.90
16635;DHT22;8431;52.458;9.998;2023-04-25T13:18:26;9.90;99.90
16635;DHT22;8431;52.458;9.998;2023-04-25T13:20:54;9.90;99.90
16635;DHT22;8431;52.458;9.998;2023-04-25T13:23:22;9.90;99.90
16635;DHT22;8431;52.458;9.998;2023-04-25T13:25:49;10.00;99.90
16635;DHT22;8431;52.458;9.998;2023-04-25T13:28:16;10.10;99.90
16635;DHT22;8431;52.458;9.998;2023-04-25T13:30:43;9.90;99.90
16635;DHT22;8431;52.458;9.998;2023-04-25T13:33:10;9.60;99.90
16635;DHT22;8431;52.458;9.998;2023-04-25T13:35:38;9.40;99.90
16635;DHT22;8431;52.458;9.998;2023-04-25T13:38:06;9.60;99.90
16635;DHT22;8431;52.458;9.998;2023-04-25T13:40:34;9.70;99.90
16635;DHT22;8431;52.458;9.998;2023-04-25T13:43:02;9.60;99.90
16635;DHT22;8431;52.458;9.998;2023-04-25T13:45:28;9.20;99.90
16635;DHT22;8431;52.458;9.998;2023-04-25T13:47:55;9.10;99.90
16635;DHT22;8431;52.458;9.998;2023-04-25T13:50:22;9.60;99.90
16635;DHT22;8431;52.458;9.998;2023-04-25T13:52:49;10.00;99.90
16635;DHT22;8431;52.458;9.998;2023-04-25T13:55:18;10.10;99.90
16635;DHT22;8431;52.458;9.998;2023-04-25T13:57:45;10.00;99.90
16635;DHT22;8431;52.458;9.998;2023-04-25T14:00:13;9.90;99.90
16635;DHT22;8431;52.458;9.998;2023-04-25T14:02:40;9.50;99.90
16635;DHT22;8431;52.458;9.998;2023-04-25T14:05:08;9.40;99.90
16635;DHT22;8431;52.458;9.998;2023-04-25T14:07:35;9.10;99.90
16635;DHT22;8431;52.458;9.998;2023-04-25T14:10:04;8.80;99.90
16635;DHT22;8431;52.458;9.998;2023-04-25T14:12:33;8.50;99.90
16635;DHT22;8431;52.458;9.998;2023-04-25T14:15:00;8.40;99.90
16635;DHT22;8431;52.458;9.998;2023-04-25T14:17:27;8.40;99.90
16635;DHT22;8431;52.458;9.998;2023-04-25T14:19:53;8.50;99.90
16635;DHT22;8431;52.458;9.998;2023-04-25T14:22:21;8.60;99.90
16635;DHT22;8431;52.458;9.998;2023-04-25T14:24:53;8.80;99.90
16635;DHT22;8431;52.458;9.998;2023-04-25T14:27:52;8.90;99.90
16635;DHT22;8431;52.458;9.998;2023-04-25T14:30:20;9.00;99.90
16635;DHT22;8431;52.458;9.998;2023-04-25T14:32:48;9.10;99.90
16635;DHT22;8431;52.458;9.998;2023-04-25T14:35:53;9.30;99.90
16635;DHT22;8431;52.458;9.998;2023-04-25T14:39:12;9.40;99.90
16635;DHT22;8431;52.458;9.998;2023-04-25T14:42:10;9.50;99.90
16635;DHT22;8431;52.458;9.998;2023-04-25T14:59:04;9.10;99.90
16635;DHT22;8431;52.458;9.998;2023-04-25T15:05:31;6.50;99.90
16635;DHT22;8431;52.458;9.998;2023-04-25T15:08:51;5.80;99.90
16635;DHT22;8431;52.458;9.998;2023-04-25T15:20:19;6.30;99.90
16635;DHT22;8431;52.458;9.998;2023-04-25T15:29:33;7.20;99.90
16635;DHT22;8431;52.458;9.998;2023-04-25T15:32:59;7.20;99.90
16635;DHT22;8431;52.458;9.998;2023-04-25T15:43:38;7.90;99.90
16635;DHT22;8431;52.458;9.998;2023-04-25T15:46:05;8.00;99.90
16635;DHT22;8431;52.458;9.998;2023-04-25T15:48:38;8.10;99.90
16635;DHT22;8431;52.458;9.998;2023-04-25T15:51:05;8.00;99.90
16635;DHT22;8431;52.458;9.998;2023-04-25T15:53:32;8.00;99.90
16635;DHT22;8431;52.458;9.998;2023-04-25T15:55:59;8.00;99.90
16635;DHT22;8431;52.458;9.998;2023-04-25T15:58:26;7.90;99.90
16635;DHT22;8431;52.458;9.998;2023-04-25T16:00:55;7.70;99.90
16635;DHT22;8431;52.458;9.998;2023-04-25T16:06:31;7.00;99.90
16635;DHT22;8431;52.458;9.998;2023-04-25T16:09:16;7.30;99.90
16635;DHT22;8431;52.458;9.998;2023-04-25T16:12:15;7.90;99.90
16635;DHT22;8431;52.458;9.998;2023-04-25T16:14:51;7.80;99.90
16635;DHT22;8431;52.458;9.998;2023-04-25T16:17:19;7.60;99.90
16635;DHT22;8431;52.458;9.998;2023-04-25T16:20:46;7.60;99.90
16635;DHT22;8431;52.458;9.998;2023-04-25T16:23:26;7.80;99.90
16635;DHT22;8431;52.458;9.998;2023-04-25T16:25:53;7.90;99.90
16635;DHT22;8431;52.458;9.998;2023-04-25T16:28:20;7.90;99.90
16635;DHT22;8431;52.458;9.998;2023-04-25T16:30:50;7.70;99.90
16635;DHT22;8431;52.458;9.998;2023-04-25T16:33:27;7.60;99.90
16635;DHT22;8431;52.458;9.998;2023-04-25T16:35:54;7.50;99.90
16635;DHT22;8431;52.458;9.998;2023-04-25T16:38:32;7.40;99.90
16635;DHT22;8431;52.458;9.998;2023-04-25T16:41:24;7.40;99.90
16635;DHT22;8431;52.458;9.998;2023-04-25T16:44:00;7.50;99.90
16635;DHT22;8431;52.458;9.998;2023-04-25T16:46:27;7.40;99.90
16635;DHT22;8431;52.458;9.998;2023-04-25T16:48:55;7.40;99.90
16635;DHT22;8431;52.458;9.998;2023-04-25T16:51:22;7.30;99.90
16635;DHT22;8431;52.458;9.998;2023-04-25T16:53:56;7.10;99.90
16635;DHT22;8431;52.458;9.998;2023-04-25T16:56:24;7.00;99.90
16635;DHT22;8431;52.458;9.998;2023-04-25T16:58:51;6.90;99.90
16635;DHT22;8431;52.458;9.998;2023-04-25T17:01:39;7.00;99.90
16635;DHT22;8431;52.458;9.998;2023-04-25T17:04:08;6.90;99.90
16635;DHT22;8431;52.458;9.998;2023-04-25T17:06:35;6.90;99.90
16635;DHT22;8431;52.458;9.998;2023-04-25T17:09:02;7.00;99.90
16635;DHT22;8431;52.458;9.998;2023-04-25T17:11:30;7.20;99.90
16635;DHT22;8431;52.458;9.998;2023-04-25T17:13:57;7.90;99.90
16635;DHT22;8431;52.458;9.998;2023-04-25T17:16:33;8.90;99.90
16635;DHT22;8431;52.458;9.998;2023-04-25T17:19:14;9.40;99.90
16635;DHT22;8431;52.458;9.998;2023-04-25T17:21:42;9.50;99.90
16635;DHT22;8431;52.458;9.998;2023-04-25T17:24:09;9.20;99.90
16635;DHT22;8431;52.458;9.998;2023-04-25T17:26:36;9.20;99.90
16635;DHT22;8431;52.458;9.998;2023-04-25T17:29:03;9.00;99.90
16635;DHT22;8431;52.458;9.998;2023-04-25T17:31:30;8.80;99.90
16635;DHT22;8431;52.458;9.998;2023-04-25T17:33:57;8.30;99.90
16635;DHT22;8431;52.458;9.998;2023-04-25T17:36:26;8.10;99.90
16635;DHT22;8431;52.458;9.998;2023-04-25T17:38:53;8.30;99.90
16635;DHT22;8431;52.458;9.998;2023-04-25T17:41:20;8.80;99.90
16635;DHT22;8431;52.458;9.998;2023-04-25T17:43:50;9.10;99.90
16635;DHT22;8431;52.458;9.998;2023-04-25T17:46:17;9.10;99.90
16635;DHT22;8431;52.458;9.998;2023-04-25T17:48:44;9.20;99.90
16635;DHT22;8431;52.458;9.998;2023-04-25T17:51:11;9.10;99.90
16635;DHT22;8431;52.458;9.998;2023-04-25T17:53:40;8.80;99.90
16635;DHT22;8431;52.458;9.998;2023-04-25T17:56:07;8.30;99.90
16635;DHT22;8431;52.458;9.998;2023-04-25T17:58:34;7.90;99.90
16635;DHT22;8431;52.458;9.998;2023-04-25T18:01:01;7.50;99.90
16635;DHT22;8431;52.458;9.998;2023-04-25T18:03:30;7.20;99.90
16635;DHT22;8431;52.458;9.998;2023-04-25T18:06:15;7.10;99.90
16635;DHT22;8431;52.458;9.998;2023-04-25T18:08:45;6.90;99.90